sensor_id;sensor_type;location;lat;lon;timestamp;P1;durP1;ratioP1;P2;durP2;ratioP2
55134;SDS011;41031;44.750;11.308;2022-09-23T00:01:11;4.10;;;2.83;;
55134;SDS011;41031;44.750;11.308;2022-09-23T00:03:40;4.03;;;3.33;;
55134;SDS011;41031;44.750;11.308;2022-09-23T00:06:09;3.20;;;2.87;;
55134;SDS011;41031;44.750;11.308;2022-09-23T00:08:38;6.13;;;2.67;;
55134;SDS011;41031;44.750;11.308;2022-09-23T00:11:06;4.73;;;2.93;;
55134;SDS011;41031;44.750;11.308;2022-09-23T00:13:35;3.07;;;2.63;;
55134;SDS011;41031;44.750;11.308;2022-09-23T00:16:04;3.40;;;2.87;;
55134;SDS011;41031;44.750;11.308;2022-09-23T00:18:33;6.27;;;2.80;;
55134;SDS011;41031;44.750;11.308;2022-09-23T00:21:03;3.97;;;2.90;;
55134;SDS011;41031;44.750;11.308;2022-09-23T00:23:31;3.43;;;2.87;;
55134;SDS011;41031;44.750;11.308;2022-09-23T00:25:59;5.73;;;3.23;;
55134;SDS011;41031;44.750;11.308;2022-09-23T00:28:28;3.80;;;3.23;;
55134;SDS011;41031;44.750;11.308;2022-09-23T00:30:56;3.60;;;3.30;;
55134;SDS011;41031;44.750;11.308;2022-09-23T00:33:27;5.00;;;3.03;;
55134;SDS011;41031;44.750;11.308;2022-09-23T00:35:58;4.80;;;2.80;;
55134;SDS011;41031;44.750;11.308;2022-09-23T00:38:27;7.43;;;2.90;;
55134;SDS011;41031;44.750;11.308;2022-09-23T00:40:54;9.50;;;2.97;;
55134;SDS011;41031;44.750;11.308;2022-09-23T00:46:08;7.30;;;2.70;;
55134;SDS011;41031;44.750;11.308;2022-09-23T00:48:38;3.20;;;2.90;;
55134;SDS011;41031;44.750;11.308;2022-09-23T00:51:08;4.20;;;2.70;;
55134;SDS011;41031;44.750;11.308;2022-09-23T00:53:40;4.33;;;2.77;;
55134;SDS011;41031;44.750;11.308;2022-09-23T00:56:07;3.23;;;2.93;;
55134;SDS011;41031;44.750;11.308;2022-09-23T00:58:38;6.47;;;3.37;;
55134;SDS011;41031;44.750;11.308;2022-09-23T01:01:07;4.20;;;3.00;;
55134;SDS011;41031;44.750;11.308;2022-09-23T01:03:34;3.77;;;3.47;;
55134;SDS011;41031;44.750;11.308;2022-09-23T01:06:01;4.60;;;2.83;;
55134;SDS011;41031;44.750;11.308;2022-09-23T01:08:28;4.23;;;3.37;;
55134;SDS011;41031;44.750;11.308;2022-09-23T01:11:11;6.07;;;3.20;;
55134;SDS011;41031;44.750;11.308;2022-09-23T01:22:37;7.87;;;3.53;;
55134;SDS011;41031;44.750;11.308;2022-09-23T01:25:10;3.77;;;3.40;;
55134;SDS011;41031;44.750;11.308;2022-09-23T01:28:19;7.53;;;3.37;;
55134;SDS011;41031;44.750;11.308;2022-09-23T01:31:05;5.60;;;3.40;;
55134;SDS011;41031;44.750;11.308;2022-09-23T01:38:59;4.47;;;3.53;;
55134;SDS011;41031;44.750;11.308;2022-09-23T01:44:45;6.87;;;3.83;;
55134;SDS011;41031;44.750;11.308;2022-09-23T01:50:05;7.03;;;3.77;;
55134;SDS011;41031;44.750;11.308;2022-09-23T01:52:55;4.47;;;3.50;;
55134;SDS011;41031;44.750;11.308;2022-09-23T01:55:28;6.80;;;3.50;;
55134;SDS011;41031;44.750;11.308;2022-09-23T01:58:13;4.93;;;3.70;;
55134;SDS011;41031;44.750;11.308;2022-09-23T02:00:57;6.97;;;4.17;;
55134;SDS011;41031;44.750;11.308;2022-09-23T02:03:29;4.57;;;3.60;;
55134;SDS011;41031;44.750;11.308;2022-09-23T02:06:27;4.17;;;3.30;;
55134;SDS011;41031;44.750;11.308;2022-09-23T02:08:58;6.07;;;3.70;;
55134;SDS011;41031;44.750;11.308;2022-09-23T02:11:28;4.80;;;3.67;;
55134;SDS011;41031;44.750;11.308;2022-09-23T02:14:03;5.83;;;3.70;;
55134;SDS011;41031;44.750;11.308;2022-09-23T02:16:45;3.93;;;3.43;;
55134;SDS011;41031;44.750;11.308;2022-09-23T02:21:56;5.97;;;2.97;;
55134;SDS011;41031;44.750;11.308;2022-09-23T02:24:29;5.03;;;3.37;;
55134;SDS011;41031;44.750;11.308;2022-09-23T02:27:23;4.00;;;3.60;;
55134;SDS011;41031;44.750;11.308;2022-09-23T02:35:35;3.57;;;3.27;;
55134;SDS011;41031;44.750;11.308;2022-09-23T02:38:30;3.70;;;2.90;;
55134;SDS011;41031;44.750;11.308;2022-09-23T02:46:10;5.67;;;3.30;;
55134;SDS011;41031;44.750;11.308;2022-09-23T02:48:38;8.83;;;3.53;;
55134;SDS011;41031;44.750;11.308;2022-09-23T02:51:14;5.63;;;3.33;;
55134;SDS011;41031;44.750;11.308;2022-09-23T02:53:41;3.60;;;3.30;;
55134;SDS011;41031;44.750;11.308;2022-09-23T02:56:13;5.97;;;3.60;;
55134;SDS011;41031;44.750;11.308;2022-09-23T02:58:41;6.70;;;3.20;;
55134;SDS011;41031;44.750;11.308;2022-09-23T03:07:00;5.13;;;4.20;;
55134;SDS011;41031;44.750;11.308;2022-09-23T03:12:48;5.67;;;3.57;;
55134;SDS011;41031;44.750;11.308;2022-09-23T03:14:59;7.97;;;3.93;;
55134;SDS011;41031;44.750;11.308;2022-09-23T03:23:10;8.77;;;4.13;;
55134;SDS011;41031;44.750;11.308;2022-09-23T03:25:41;7.80;;;4.50;;
55134;SDS011;41031;44.750;11.308;2022-09-23T03:28:11;5.37;;;4.43;;
55134;SDS011;41031;44.750;11.308;2022-09-23T03:30:40;8.30;;;4.73;;
55134;SDS011;41031;44.750;11.308;2022-09-23T03:33:09;5.23;;;4.43;;
55134;SDS011;41031;44.750;11.308;2022-09-23T03:35:43;5.80;;;4.33;;
55134;SDS011;41031;44.750;11.308;2022-09-23T03:38:42;6.73;;;4.80;;
55134;SDS011;41031;44.750;11.308;2022-09-23T03:41:16;7.57;;;5.13;;
55134;SDS011;41031;44.750;11.308;2022-09-23T03:43:55;8.60;;;4.77;;
55134;SDS011;41031;44.750;11.308;2022-09-23T03:46:27;5.20;;;4.60;;
55134;SDS011;41031;44.750;11.308;2022-09-23T03:48:57;5.77;;;4.63;;
55134;SDS011;41031;44.750;11.308;2022-09-23T03:51:29;5.67;;;4.10;;
55134;SDS011;41031;44.750;11.308;2022-09-23T03:53:56;5.03;;;4.50;;
55134;SDS011;41031;44.750;11.308;2022-09-23T03:56:23;6.30;;;4.17;;
55134;SDS011;41031;44.750;11.308;2022-09-23T03:58:50;5.27;;;4.00;;
55134;SDS011;41031;44.750;11.308;2022-09-23T04:01:17;4.40;;;3.87;;
55134;SDS011;41031;44.750;11.308;2022-09-23T04:03:44;4.97;;;3.77;;
55134;SDS011;41031;44.750;11.308;2022-09-23T04:06:11;4.93;;;4.03;;
55134;SDS011;41031;44.750;11.308;2022-09-23T04:08:38;7.23;;;4.60;;
55134;SDS011;41031;44.750;11.308;2022-09-23T04:11:05;6.43;;;4.20;;
55134;SDS011;41031;44.750;11.308;2022-09-23T04:13:33;7.27;;;4.17;;
55134;SDS011;41031;44.750;11.308;2022-09-23T04:16:00;5.37;;;4.20;;
55134;SDS011;41031;44.750;11.308;2022-09-23T04:18:27;4.50;;;4.10;;
55134;SDS011;41031;44.750;11.308;2022-09-23T04:20:57;4.73;;;4.10;;
55134;SDS011;41031;44.750;11.308;2022-09-23T04:23:27;4.27;;;3.87;;
55134;SDS011;41031;44.750;11.308;2022-09-23T04:25:55;4.17;;;3.77;;
55134;SDS011;41031;44.750;11.308;2022-09-23T04:28:22;7.00;;;4.30;;
55134;SDS011;41031;44.750;11.308;2022-09-23T04:30:49;5.77;;;4.17;;
55134;SDS011;41031;44.750;11.308;2022-09-23T04:33:17;4.73;;;4.17;;
55134;SDS011;41031;44.750;11.308;2022-09-23T04:35:48;5.37;;;4.03;;
55134;SDS011;41031;44.750;11.308;2022-09-23T04:38:16;6.13;;;4.23;;
55134;SDS011;41031;44.750;11.308;2022-09-23T04:40:44;6.77;;;4.20;;
55134;SDS011;41031;44.750;11.308;2022-09-23T04:43:11;5.23;;;4.17;;
55134;SDS011;41031;44.750;11.308;2022-09-23T04:45:40;4.97;;;3.93;;
55134;SDS011;41031;44.750;11.308;2022-09-23T04:48:08;4.17;;;3.77;;
55134;SDS011;41031;44.750;11.308;2022-09-23T04:50:36;4.10;;;3.70;;
55134;SDS011;41031;44.750;11.308;2022-09-23T04:53:03;4.80;;;4.40;;
55134;SDS011;41031;44.750;11.308;2022-09-23T04:55:31;5.77;;;4.20;;
55134;SDS011;41031;44.750;11.308;2022-09-23T04:57:58;5.23;;;4.47;;
55134;SDS011;41031;44.750;11.308;2022-09-23T05:00:25;4.80;;;4.23;;
55134;SDS011;41031;44.750;11.308;2022-09-23T05:02:54;6.83;;;5.37;;
55134;SDS011;41031;44.750;11.308;2022-09-23T05:05:21;6.50;;;5.20;;
55134;SDS011;41031;44.750;11.308;2022-09-23T05:07:49;8.93;;;5.27;;
55134;SDS011;41031;44.750;11.308;2022-09-23T05:10:20;7.60;;;5.40;;
55134;SDS011;41031;44.750;11.308;2022-09-23T05:12:47;9.27;;;5.80;;
55134;SDS011;41031;44.750;11.308;2022-09-23T05:15:20;8.63;;;5.73;;
55134;SDS011;41031;44.750;11.308;2022-09-23T05:17:47;6.23;;;5.33;;
55134;SDS011;41031;44.750;11.308;2022-09-23T05:20:14;6.83;;;5.20;;
55134;SDS011;41031;44.750;11.308;2022-09-23T05:22:41;8.80;;;5.53;;
55134;SDS011;41031;44.750;11.308;2022-09-23T05:25:08;8.80;;;6.10;;
55134;SDS011;41031;44.750;11.308;2022-09-23T05:27:35;11.80;;;5.13;;
55134;SDS011;41031;44.750;11.308;2022-09-23T05:30:02;7.90;;;5.17;;
55134;SDS011;41031;44.750;11.308;2022-09-23T05:32:29;5.63;;;4.97;;
55134;SDS011;41031;44.750;11.308;2022-09-23T05:34:57;13.47;;;5.30;;
55134;SDS011;41031;44.750;11.308;2022-09-23T05:37:24;10.07;;;5.60;;
55134;SDS011;41031;44.750;11.308;2022-09-23T05:39:51;7.27;;;5.00;;
55134;SDS011;41031;44.750;11.308;2022-09-23T05:42:18;8.60;;;4.93;;
55134;SDS011;41031;44.750;11.308;2022-09-23T05:44:46;7.60;;;4.70;;
55134;SDS011;41031;44.750;11.308;2022-09-23T05:47:13;7.40;;;4.87;;
55134;SDS011;41031;44.750;11.308;2022-09-23T05:49:40;5.80;;;4.20;;
55134;SDS011;41031;44.750;11.308;2022-09-23T05:52:24;6.50;;;3.87;;
55134;SDS011;41031;44.750;11.308;2022-09-23T05:54:51;3.63;;;3.33;;
55134;SDS011;41031;44.750;11.308;2022-09-23T05:57:18;3.97;;;3.57;;
55134;SDS011;41031;44.750;11.308;2022-09-23T05:59:46;6.07;;;2.90;;
55134;SDS011;41031;44.750;11.308;2022-09-23T06:02:13;3.50;;;3.20;;
55134;SDS011;41031;44.750;11.308;2022-09-23T06:04:41;4.17;;;2.90;;
55134;SDS011;41031;44.750;11.308;2022-09-23T06:07:08;3.87;;;2.80;;
55134;SDS011;41031;44.750;11.308;2022-09-23T06:09:35;6.00;;;3.17;;
55134;SDS011;41031;44.750;11.308;2022-09-23T06:12:03;5.53;;;2.97;;
55134;SDS011;41031;44.750;11.308;2022-09-23T06:14:31;3.17;;;2.87;;
55134;SDS011;41031;44.750;11.308;2022-09-23T06:16:58;5.87;;;2.47;;
55134;SDS011;41031;44.750;11.308;2022-09-23T06:19:26;2.80;;;2.50;;
55134;SDS011;41031;44.750;11.308;2022-09-23T06:21:52;3.13;;;2.70;;
55134;SDS011;41031;44.750;11.308;2022-09-23T06:24:19;4.00;;;2.30;;
55134;SDS011;41031;44.750;11.308;2022-09-23T06:26:55;2.97;;;2.40;;
55134;SDS011;41031;44.750;11.308;2022-09-23T06:29:22;2.77;;;2.47;;
55134;SDS011;41031;44.750;11.308;2022-09-23T06:31:49;4.17;;;3.23;;
55134;SDS011;41031;44.750;11.308;2022-09-23T06:34:16;4.53;;;2.40;;
55134;SDS011;41031;44.750;11.308;2022-09-23T06:36:45;2.60;;;2.40;;
55134;SDS011;41031;44.750;11.308;2022-09-23T06:39:13;2.70;;;2.50;;
55134;SDS011;41031;44.750;11.308;2022-09-23T06:41:41;5.10;;;2.67;;
55134;SDS011;41031;44.750;11.308;2022-09-23T06:44:14;6.70;;;2.23;;
55134;SDS011;41031;44.750;11.308;2022-09-23T06:46:42;4.60;;;2.37;;
55134;SDS011;41031;44.750;11.308;2022-09-23T06:49:09;2.77;;;2.50;;
55134;SDS011;41031;44.750;11.308;2022-09-23T06:51:37;4.43;;;2.87;;
55134;SDS011;41031;44.750;11.308;2022-09-23T06:54:05;2.07;;;1.83;;
55134;SDS011;41031;44.750;11.308;2022-09-23T06:56:32;1.90;;;1.80;;
55134;SDS011;41031;44.750;11.308;2022-09-23T06:59:05;2.27;;;1.70;;
55134;SDS011;41031;44.750;11.308;2022-09-23T07:01:35;2.97;;;2.00;;
55134;SDS011;41031;44.750;11.308;2022-09-23T07:04:02;3.93;;;1.93;;
55134;SDS011;41031;44.750;11.308;2022-09-23T07:06:29;3.50;;;2.00;;
55134;SDS011;41031;44.750;11.308;2022-09-23T07:08:56;4.13;;;2.10;;
55134;SDS011;41031;44.750;11.308;2022-09-23T07:11:23;2.50;;;2.30;;
55134;SDS011;41031;44.750;11.308;2022-09-23T07:13:50;9.40;;;2.60;;
55134;SDS011;41031;44.750;11.308;2022-09-23T07:16:17;3.80;;;2.47;;
55134;SDS011;41031;44.750;11.308;2022-09-23T07:18:44;2.40;;;2.20;;
55134;SDS011;41031;44.750;11.308;2022-09-23T07:21:13;2.87;;;2.40;;
55134;SDS011;41031;44.750;11.308;2022-09-23T07:23:46;3.27;;;2.10;;
55134;SDS011;41031;44.750;11.308;2022-09-23T07:26:16;3.77;;;2.80;;
55134;SDS011;41031;44.750;11.308;2022-09-23T07:28:44;8.80;;;2.60;;
55134;SDS011;41031;44.750;11.308;2022-09-23T07:31:13;4.77;;;2.47;;
55134;SDS011;41031;44.750;11.308;2022-09-23T07:34:00;3.50;;;2.10;;
55134;SDS011;41031;44.750;11.308;2022-09-23T07:36:28;7.13;;;2.33;;
55134;SDS011;41031;44.750;11.308;2022-09-23T07:38:58;3.27;;;2.83;;
55134;SDS011;41031;44.750;11.308;2022-09-23T07:41:30;2.87;;;2.13;;
55134;SDS011;41031;44.750;11.308;2022-09-23T07:43:57;8.13;;;3.37;;
55134;SDS011;41031;44.750;11.308;2022-09-23T07:46:27;4.07;;;2.87;;
55134;SDS011;41031;44.750;11.308;2022-09-23T07:48:56;8.77;;;2.83;;
55134;SDS011;41031;44.750;11.308;2022-09-23T07:51:24;4.07;;;2.80;;
55134;SDS011;41031;44.750;11.308;2022-09-23T07:54:00;7.00;;;2.87;;
55134;SDS011;41031;44.750;11.308;2022-09-23T07:56:27;6.87;;;3.00;;
55134;SDS011;41031;44.750;11.308;2022-09-23T07:58:55;3.10;;;2.80;;
55134;SDS011;41031;44.750;11.308;2022-09-23T08:01:27;6.53;;;3.00;;
55134;SDS011;41031;44.750;11.308;2022-09-23T08:03:58;4.23;;;3.10;;
55134;SDS011;41031;44.750;11.308;2022-09-23T08:06:47;3.70;;;2.97;;
55134;SDS011;41031;44.750;11.308;2022-09-23T08:09:16;4.13;;;3.20;;
55134;SDS011;41031;44.750;11.308;2022-09-23T08:11:44;6.67;;;3.53;;
55134;SDS011;41031;44.750;11.308;2022-09-23T08:14:12;3.37;;;3.07;;
55134;SDS011;41031;44.750;11.308;2022-09-23T08:16:40;4.47;;;2.77;;
55134;SDS011;41031;44.750;11.308;2022-09-23T08:19:08;3.20;;;2.90;;
55134;SDS011;41031;44.750;11.308;2022-09-23T08:21:35;4.10;;;3.07;;
55134;SDS011;41031;44.750;11.308;2022-09-23T08:24:08;4.30;;;2.53;;
55134;SDS011;41031;44.750;11.308;2022-09-23T08:26:39;7.30;;;3.03;;
55134;SDS011;41031;44.750;11.308;2022-09-23T08:29:06;3.03;;;2.73;;
55134;SDS011;41031;44.750;11.308;2022-09-23T08:31:36;3.27;;;2.30;;
55134;SDS011;41031;44.750;11.308;2022-09-23T08:34:04;6.50;;;2.67;;
55134;SDS011;41031;44.750;11.308;2022-09-23T08:36:32;4.27;;;2.60;;
55134;SDS011;41031;44.750;11.308;2022-09-23T08:38:59;2.83;;;2.10;;
55134;SDS011;41031;44.750;11.308;2022-09-23T08:44:45;4.10;;;2.27;;
55134;SDS011;41031;44.750;11.308;2022-09-23T08:47:22;4.23;;;2.20;;
55134;SDS011;41031;44.750;11.308;2022-09-23T08:50:21;3.40;;;2.27;;
55134;SDS011;41031;44.750;11.308;2022-09-23T08:52:56;9.23;;;3.10;;
55134;SDS011;41031;44.750;11.308;2022-09-23T08:55:29;4.20;;;1.97;;
55134;SDS011;41031;44.750;11.308;2022-09-23T08:58:06;2.30;;;2.10;;
55134;SDS011;41031;44.750;11.308;2022-09-23T09:03:55;4.30;;;1.50;;
55134;SDS011;41031;44.750;11.308;2022-09-23T09:06:27;3.43;;;1.43;;
55134;SDS011;41031;44.750;11.308;2022-09-23T09:09:26;6.30;;;1.57;;
55134;SDS011;41031;44.750;11.308;2022-09-23T09:12:02;6.30;;;1.53;;
55134;SDS011;41031;44.750;11.308;2022-09-23T09:28:20;6.73;;;2.20;;
55134;SDS011;41031;44.750;11.308;2022-09-23T09:30:49;2.17;;;1.60;;
55134;SDS011;41031;44.750;11.308;2022-09-23T09:33:35;3.03;;;1.50;;
55134;SDS011;41031;44.750;11.308;2022-09-23T09:36:22;5.20;;;1.33;;
55134;SDS011;41031;44.750;11.308;2022-09-23T09:39:10;2.40;;;1.30;;
55134;SDS011;41031;44.750;11.308;2022-09-23T09:41:46;6.37;;;1.70;;
55134;SDS011;41031;44.750;11.308;2022-09-23T09:44:23;8.43;;;3.70;;
55134;SDS011;41031;44.750;11.308;2022-09-23T09:49:46;2.73;;;1.53;;
55134;SDS011;41031;44.750;11.308;2022-09-23T09:52:23;1.60;;;1.50;;
55134;SDS011;41031;44.750;11.308;2022-09-23T09:54:56;2.00;;;1.27;;
55134;SDS011;41031;44.750;11.308;2022-09-23T09:57:44;1.63;;;1.10;;
55134;SDS011;41031;44.750;11.308;2022-09-23T10:00:35;2.13;;;1.13;;
55134;SDS011;41031;44.750;11.308;2022-09-23T10:08:31;1.73;;;1.10;;
55134;SDS011;41031;44.750;11.308;2022-09-23T10:11:16;1.87;;;1.00;;
55134;SDS011;41031;44.750;11.308;2022-09-23T10:16:44;1.53;;;0.93;;
55134;SDS011;41031;44.750;11.308;2022-09-23T10:21:55;0.60;;;0.60;;
55134;SDS011;41031;44.750;11.308;2022-09-23T10:24:28;0.70;;;0.70;;
55134;SDS011;41031;44.750;11.308;2022-09-23T10:26:58;1.20;;;1.00;;
55134;SDS011;41031;44.750;11.308;2022-09-23T10:29:38;1.07;;;0.97;;
55134;SDS011;41031;44.750;11.308;2022-09-23T10:32:17;1.57;;;0.90;;
55134;SDS011;41031;44.750;11.308;2022-09-23T10:34:48;1.40;;;0.97;;
55134;SDS011;41031;44.750;11.308;2022-09-23T10:37:22;1.37;;;1.27;;
55134;SDS011;41031;44.750;11.308;2022-09-23T10:39:57;2.80;;;0.90;;
55134;SDS011;41031;44.750;11.308;2022-09-23T10:45:50;0.63;;;0.63;;
55134;SDS011;41031;44.750;11.308;2022-09-23T10:49:05;0.93;;;0.60;;
55134;SDS011;41031;44.750;11.308;2022-09-23T10:52:00;0.80;;;0.80;;
55134;SDS011;41031;44.750;11.308;2022-09-23T11:08:32;0.73;;;0.73;;
55134;SDS011;41031;44.750;11.308;2022-09-23T11:11:05;1.20;;;1.00;;
55134;SDS011;41031;44.750;11.308;2022-09-23T11:34:09;2.77;;;1.07;;
55134;SDS011;41031;44.750;11.308;2022-09-23T11:37:16;1.63;;;1.13;;
55134;SDS011;41031;44.750;11.308;2022-09-23T11:39:48;1.00;;;0.90;;
55134;SDS011;41031;44.750;11.308;2022-09-23T11:42:22;1.00;;;0.90;;
55134;SDS011;41031;44.750;11.308;2022-09-23T11:45:06;2.13;;;0.90;;
55134;SDS011;41031;44.750;11.308;2022-09-23T11:47:42;1.07;;;1.00;;
55134;SDS011;41031;44.750;11.308;2022-09-23T11:50:35;1.03;;;0.97;;
55134;SDS011;41031;44.750;11.308;2022-09-23T11:53:07;4.77;;;1.97;;
55134;SDS011;41031;44.750;11.308;2022-09-23T11:55:43;4.87;;;1.00;;
55134;SDS011;41031;44.750;11.308;2022-09-23T11:58:41;1.10;;;1.00;;
55134;SDS011;41031;44.750;11.308;2022-09-23T12:01:27;2.40;;;0.90;;
55134;SDS011;41031;44.750;11.308;2022-09-23T12:04:05;1.47;;;1.10;;
55134;SDS011;41031;44.750;11.308;2022-09-23T12:09:40;1.13;;;0.80;;
55134;SDS011;41031;44.750;11.308;2022-09-23T12:15:39;2.30;;;0.87;;
55134;SDS011;41031;44.750;11.308;2022-09-23T12:26:44;1.07;;;0.80;;
55134;SDS011;41031;44.750;11.308;2022-09-23T12:29:17;2.50;;;0.97;;
55134;SDS011;41031;44.750;11.308;2022-09-23T12:31:45;1.17;;;1.00;;
55134;SDS011;41031;44.750;11.308;2022-09-23T12:37:00;0.67;;;0.67;;
55134;SDS011;41031;44.750;11.308;2022-09-23T12:39:29;3.00;;;1.00;;
55134;SDS011;41031;44.750;11.308;2022-09-23T12:42:10;0.70;;;0.70;;
55134;SDS011;41031;44.750;11.308;2022-09-23T12:44:43;1.53;;;0.97;;
55134;SDS011;41031;44.750;11.308;2022-09-23T12:49:53;0.80;;;0.60;;
55134;SDS011;41031;44.750;11.308;2022-09-23T12:52:24;2.30;;;0.63;;
55134;SDS011;41031;44.750;11.308;2022-09-23T12:54:57;6.60;;;1.00;;
55134;SDS011;41031;44.750;11.308;2022-09-23T12:57:44;2.23;;;0.73;;
55134;SDS011;41031;44.750;11.308;2022-09-23T13:05:41;1.33;;;0.80;;
55134;SDS011;41031;44.750;11.308;2022-09-23T13:08:38;0.90;;;0.77;;
55134;SDS011;41031;44.750;11.308;2022-09-23T13:11:13;0.63;;;0.63;;
55134;SDS011;41031;44.750;11.308;2022-09-23T13:13:47;3.33;;;0.87;;
55134;SDS011;41031;44.750;11.308;2022-09-23T13:16:29;1.73;;;1.07;;
55134;SDS011;41031;44.750;11.308;2022-09-23T13:19:00;12.83;;;1.10;;
55134;SDS011;41031;44.750;11.308;2022-09-23T13:27:16;2.03;;;0.83;;
55134;SDS011;41031;44.750;11.308;2022-09-23T13:32:37;1.00;;;0.87;;
55134;SDS011;41031;44.750;11.308;2022-09-23T13:37:43;1.47;;;1.13;;
55134;SDS011;41031;44.750;11.308;2022-09-23T13:42:51;1.93;;;1.10;;
55134;SDS011;41031;44.750;11.308;2022-09-23T13:45:24;3.57;;;0.80;;
55134;SDS011;41031;44.750;11.308;2022-09-23T13:47:53;2.17;;;0.80;;
55134;SDS011;41031;44.750;11.308;2022-09-23T13:50:24;3.03;;;1.30;;
55134;SDS011;41031;44.750;11.308;2022-09-23T13:52:58;1.33;;;1.20;;
55134;SDS011;41031;44.750;11.308;2022-09-23T13:55:32;1.00;;;0.90;;
55134;SDS011;41031;44.750;11.308;2022-09-23T14:00:46;1.40;;;0.80;;
55134;SDS011;41031;44.750;11.308;2022-09-23T14:03:36;4.23;;;1.00;;
55134;SDS011;41031;44.750;11.308;2022-09-23T14:06:12;1.30;;;0.90;;
55134;SDS011;41031;44.750;11.308;2022-09-23T14:08:45;1.37;;;0.80;;
55134;SDS011;41031;44.750;11.308;2022-09-23T14:11:19;1.43;;;1.17;;
55134;SDS011;41031;44.750;11.308;2022-09-23T14:13:49;1.53;;;0.90;;
55134;SDS011;41031;44.750;11.308;2022-09-23T14:16:21;1.83;;;0.93;;
55134;SDS011;41031;44.750;11.308;2022-09-23T14:18:54;2.00;;;0.97;;
55134;SDS011;41031;44.750;11.308;2022-09-23T14:21:25;2.00;;;0.80;;
55134;SDS011;41031;44.750;11.308;2022-09-23T14:26:52;4.30;;;0.80;;
55134;SDS011;41031;44.750;11.308;2022-09-23T14:29:22;1.63;;;0.87;;
55134;SDS011;41031;44.750;11.308;2022-09-23T14:32:01;0.87;;;0.80;;
55134;SDS011;41031;44.750;11.308;2022-09-23T14:40:02;1.63;;;0.87;;
55134;SDS011;41031;44.750;11.308;2022-09-23T14:42:36;1.73;;;1.00;;
55134;SDS011;41031;44.750;11.308;2022-09-23T14:45:07;0.83;;;0.83;;
55134;SDS011;41031;44.750;11.308;2022-09-23T14:47:41;1.07;;;0.80;;
55134;SDS011;41031;44.750;11.308;2022-09-23T14:50:13;2.57;;;1.23;;
55134;SDS011;41031;44.750;11.308;2022-09-23T14:53:00;0.80;;;0.80;;
55134;SDS011;41031;44.750;11.308;2022-09-23T14:55:27;1.07;;;0.70;;
55134;SDS011;41031;44.750;11.308;2022-09-23T14:58:01;3.13;;;0.70;;
55134;SDS011;41031;44.750;11.308;2022-09-23T15:00:30;1.70;;;0.70;;
55134;SDS011;41031;44.750;11.308;2022-09-23T15:02:58;0.80;;;0.80;;
55134;SDS011;41031;44.750;11.308;2022-09-23T15:05:37;1.17;;;0.90;;
55134;SDS011;41031;44.750;11.308;2022-09-23T15:08:09;5.03;;;0.87;;
55134;SDS011;41031;44.750;11.308;2022-09-23T15:10:39;1.77;;;1.00;;
55134;SDS011;41031;44.750;11.308;2022-09-23T15:13:40;2.27;;;0.80;;
55134;SDS011;41031;44.750;11.308;2022-09-23T15:16:03;1.53;;;0.97;;
55134;SDS011;41031;44.750;11.308;2022-09-23T15:18:32;2.10;;;0.80;;
55134;SDS011;41031;44.750;11.308;2022-09-23T15:23:45;0.90;;;0.67;;
55134;SDS011;41031;44.750;11.308;2022-09-23T15:28:46;1.37;;;0.90;;
55134;SDS011;41031;44.750;11.308;2022-09-23T15:31:15;2.30;;;0.90;;
55134;SDS011;41031;44.750;11.308;2022-09-23T15:33:47;0.73;;;0.73;;
55134;SDS011;41031;44.750;11.308;2022-09-23T15:36:19;4.07;;;0.80;;
55134;SDS011;41031;44.750;11.308;2022-09-23T15:38:51;5.87;;;1.00;;
55134;SDS011;41031;44.750;11.308;2022-09-23T15:41:20;0.70;;;0.70;;
55134;SDS011;41031;44.750;11.308;2022-09-23T15:43:49;0.87;;;0.70;;
55134;SDS011;41031;44.750;11.308;2022-09-23T15:46:18;2.13;;;0.80;;
55134;SDS011;41031;44.750;11.308;2022-09-23T15:49:04;4.13;;;0.90;;
55134;SDS011;41031;44.750;11.308;2022-09-23T15:51:34;3.00;;;1.03;;
55134;SDS011;41031;44.750;11.308;2022-09-23T15:54:04;3.13;;;0.90;;
55134;SDS011;41031;44.750;11.308;2022-09-23T15:56:34;2.93;;;0.93;;
55134;SDS011;41031;44.750;11.308;2022-09-23T15:59:01;5.33;;;1.47;;
55134;SDS011;41031;44.750;11.308;2022-09-23T16:01:29;4.80;;;1.23;;
55134;SDS011;41031;44.750;11.308;2022-09-23T16:03:59;1.00;;;0.90;;
55134;SDS011;41031;44.750;11.308;2022-09-23T16:06:26;1.60;;;1.10;;
55134;SDS011;41031;44.750;11.308;2022-09-23T16:08:54;1.03;;;0.90;;
55134;SDS011;41031;44.750;11.308;2022-09-23T16:11:22;1.67;;;1.00;;
55134;SDS011;41031;44.750;11.308;2022-09-23T16:13:52;0.70;;;0.70;;
55134;SDS011;41031;44.750;11.308;2022-09-23T16:16:19;2.60;;;0.83;;
55134;SDS011;41031;44.750;11.308;2022-09-23T16:18:46;4.10;;;0.90;;
55134;SDS011;41031;44.750;11.308;2022-09-23T16:21:16;3.53;;;1.00;;
55134;SDS011;41031;44.750;11.308;2022-09-23T16:23:46;1.30;;;0.90;;
55134;SDS011;41031;44.750;11.308;2022-09-23T16:26:20;3.70;;;1.20;;
55134;SDS011;41031;44.750;11.308;2022-09-23T16:28:53;6.10;;;1.13;;
55134;SDS011;41031;44.750;11.308;2022-09-23T16:31:22;3.83;;;0.90;;
55134;SDS011;41031;44.750;11.308;2022-09-23T16:33:51;8.50;;;1.27;;
55134;SDS011;41031;44.750;11.308;2022-09-23T16:36:38;1.27;;;0.97;;
55134;SDS011;41031;44.750;11.308;2022-09-23T16:39:08;1.30;;;1.07;;
55134;SDS011;41031;44.750;11.308;2022-09-23T16:41:37;1.63;;;0.93;;
55134;SDS011;41031;44.750;11.308;2022-09-23T16:44:05;2.90;;;1.10;;
55134;SDS011;41031;44.750;11.308;2022-09-23T16:46:36;3.90;;;0.93;;
55134;SDS011;41031;44.750;11.308;2022-09-23T16:49:03;2.40;;;1.00;;
55134;SDS011;41031;44.750;11.308;2022-09-23T16:51:31;2.83;;;1.00;;
55134;SDS011;41031;44.750;11.308;2022-09-23T16:54:08;4.60;;;1.00;;
55134;SDS011;41031;44.750;11.308;2022-09-23T16:56:37;3.87;;;1.10;;
55134;SDS011;41031;44.750;11.308;2022-09-23T16:59:10;9.40;;;1.30;;
55134;SDS011;41031;44.750;11.308;2022-09-23T17:01:41;8.07;;;2.07;;
55134;SDS011;41031;44.750;11.308;2022-09-23T17:04:27;5.30;;;1.17;;
55134;SDS011;41031;44.750;11.308;2022-09-23T17:06:54;5.60;;;1.20;;
55134;SDS011;41031;44.750;11.308;2022-09-23T17:09:23;9.67;;;1.70;;
55134;SDS011;41031;44.750;11.308;2022-09-23T17:11:57;5.37;;;1.40;;
55134;SDS011;41031;44.750;11.308;2022-09-23T17:14:34;8.50;;;2.40;;
55134;SDS011;41031;44.750;11.308;2022-09-23T17:17:02;10.87;;;4.10;;
55134;SDS011;41031;44.750;11.308;2022-09-23T17:19:29;6.70;;;3.47;;
55134;SDS011;41031;44.750;11.308;2022-09-23T17:21:56;5.13;;;2.60;;
55134;SDS011;41031;44.750;11.308;2022-09-23T17:24:23;5.80;;;1.97;;
55134;SDS011;41031;44.750;11.308;2022-09-23T17:26:50;4.27;;;1.80;;
55134;SDS011;41031;44.750;11.308;2022-09-23T17:29:18;4.23;;;2.67;;
55134;SDS011;41031;44.750;11.308;2022-09-23T17:31:45;8.20;;;2.40;;
55134;SDS011;41031;44.750;11.308;2022-09-23T17:34:12;4.27;;;2.63;;
55134;SDS011;41031;44.750;11.308;2022-09-23T17:36:39;3.43;;;2.10;;
55134;SDS011;41031;44.750;11.308;2022-09-23T17:39:06;5.23;;;1.73;;
55134;SDS011;41031;44.750;11.308;2022-09-23T17:41:34;3.23;;;1.37;;
55134;SDS011;41031;44.750;11.308;2022-09-23T17:44:01;4.40;;;1.47;;
55134;SDS011;41031;44.750;11.308;2022-09-23T17:46:28;2.87;;;1.93;;
55134;SDS011;41031;44.750;11.308;2022-09-23T17:48:56;1.93;;;1.10;;
55134;SDS011;41031;44.750;11.308;2022-09-23T17:51:23;2.43;;;1.50;;
55134;SDS011;41031;44.750;11.308;2022-09-23T17:53:51;1.53;;;1.33;;
55134;SDS011;41031;44.750;11.308;2022-09-23T17:56:19;1.53;;;1.03;;
55134;SDS011;41031;44.750;11.308;2022-09-23T17:58:49;2.80;;;1.60;;
55134;SDS011;41031;44.750;11.308;2022-09-23T18:01:17;4.07;;;1.93;;